createdAt,value
2019-05-21T00:09:32.911Z,9.55
2019-05-21T00:20:05.693Z,9.48
2019-05-21T00:30:52.563Z,9.26
2019-05-21T00:41:38.095Z,9.08
2019-05-21T00:52:11.778Z,8.82
2019-05-21T01:02:45.253Z,9.04
2019-05-21T01:13:18.997Z,9.04
2019-05-21T01:23:52.534Z,9.36
2019-05-21T01:34:26.294Z,9.91
2019-05-21T01:44:59.662Z,9.99
2019-05-21T01:55:32.377Z,10.04
2019-05-21T02:06:06.033Z,9.88
2019-05-21T02:16:39.483Z,9.92
2019-05-21T02:27:13.239Z,9.69
2019-05-21T02:37:46.380Z,9.36
2019-05-21T02:48:18.950Z,9.12
2019-05-21T02:58:51.754Z,9.01
2019-05-21T03:09:25.532Z,9.11
2019-05-21T03:19:59.021Z,9.37
2019-05-21T03:30:32.942Z,10.09
2019-05-21T03:41:06.399Z,11.36
2019-05-21T03:51:39.050Z,12.51
2019-05-21T04:02:12.584Z,13.14
2019-05-21T04:12:46.073Z,13.88
2019-05-21T04:23:19.474Z,14.79
2019-05-21T04:33:52.180Z,15.73
2019-05-21T04:44:25.815Z,16.35
2019-05-21T04:54:59.415Z,15.98
2019-05-21T05:05:32.966Z,17.56
2019-05-21T05:16:06.439Z,17.85
2019-05-21T05:26:39.900Z,17.90
2019-05-21T05:37:13.497Z,19.57
2019-05-21T05:47:47.130Z,18.97
2019-05-21T05:58:20.400Z,19.88
2019-05-21T06:08:53.687Z,20.62
2019-05-21T06:19:26.843Z,19.86
2019-05-21T06:30:00.082Z,21.67
2019-05-21T06:40:33.713Z,21.35
2019-05-21T06:51:07.294Z,21.24
2019-05-21T07:01:40.637Z,22.40
2019-05-21T07:12:13.549Z,22.67
2019-05-21T07:22:47.556Z,22.13
2019-05-21T07:33:20.757Z,24.67
2019-05-21T07:43:54.206Z,26.28
2019-05-21T07:54:28.115Z,25.07
2019-05-21T08:05:01.412Z,27.44
2019-05-21T08:15:35.910Z,24.19
2019-05-21T08:26:09.238Z,21.66
2019-05-21T08:36:42.446Z,20.54
2019-05-21T08:47:15.995Z,20.02
2019-05-21T08:58:05.576Z,22.77
2019-05-21T09:08:24.393Z,22.53
2019-05-21T09:18:58.063Z,21.49
2019-05-21T09:29:31.632Z,21.68
2019-05-21T09:40:05.308Z,20.87
2019-05-21T09:50:38.753Z,23.08
2019-05-21T10:01:17.554Z,24.96
2019-05-21T10:11:50.951Z,27.34
2019-05-21T10:22:24.396Z,26.41
2019-05-21T10:32:59.155Z,24.80
2019-05-21T10:43:32.811Z,24.12
2019-05-21T10:54:06.137Z,24.48
2019-05-21T11:04:41.667Z,25.37
2019-05-21T11:15:15.462Z,23.64
2019-05-21T11:25:48.914Z,24.48
2019-05-21T11:36:22.255Z,24.01
2019-05-21T11:46:55.679Z,22.70
2019-05-21T11:57:29.371Z,22.65
2019-05-21T12:08:03.101Z,22.19
2019-05-21T12:18:36.522Z,22.99
2019-05-21T12:29:09.733Z,22.70
2019-05-21T12:39:43.322Z,22.19
2019-05-21T12:50:16.803Z,20.90
2019-05-21T13:00:54.674Z,20.88
2019-05-21T13:11:28.170Z,20.45
2019-05-21T13:22:01.653Z,19.59
2019-05-21T13:32:35.276Z,19.47
2019-05-21T13:43:08.749Z,19.60
2019-05-21T13:53:42.428Z,20.08
2019-05-21T14:04:16.045Z,19.54
2019-05-21T14:14:50.003Z,18.72
2019-05-21T14:25:24.077Z,19.69
2019-05-21T14:35:57.660Z,19.32
2019-05-21T14:46:31.202Z,19.52
2019-05-21T14:57:04.725Z,19.85
2019-05-21T15:07:38.418Z,19.83
2019-05-21T15:18:19.609Z,19.36
2019-05-21T15:28:46.705Z,19.12
2019-05-21T15:39:21.194Z,17.27
2019-05-21T15:49:54.739Z,16.22
2019-05-21T16:00:30.390Z,15.69
2019-05-21T16:11:03.277Z,15.17
2019-05-21T16:21:36.869Z,14.96
2019-05-21T16:32:10.587Z,15.46
2019-05-21T16:42:43.866Z,15.57
2019-05-21T16:53:17.383Z,15.57
2019-05-21T17:03:59.564Z,15.41
2019-05-21T17:14:25.534Z,14.87
2019-05-21T17:24:59.112Z,14.63
2019-05-21T17:35:32.577Z,14.55
2019-05-21T17:46:06.227Z,14.29
2019-05-21T17:56:39.123Z,14.00
2019-05-21T18:07:14.925Z,13.75
2019-05-21T18:17:49.549Z,13.34
2019-05-21T18:28:22.981Z,13.31
2019-05-21T18:38:56.551Z,13.26
2019-05-21T18:49:30.141Z,13.15
2019-05-21T19:00:03.896Z,13.16
2019-05-21T19:10:36.606Z,13.17
2019-05-21T19:21:09.496Z,13.33
2019-05-21T19:31:43.090Z,13.31
2019-05-21T19:42:16.544Z,13.60
2019-05-21T19:52:50.217Z,13.09
2019-05-21T20:03:24.986Z,12.51
2019-05-21T20:13:58.438Z,12.72
2019-05-21T20:24:32.123Z,12.95
2019-05-21T20:35:05.643Z,12.81
2019-05-21T20:45:41.238Z,13.46
2019-05-21T20:56:15.637Z,13.71
2019-05-21T21:06:48.266Z,12.92
2019-05-21T21:17:21.907Z,12.16
2019-05-21T21:27:55.449Z,11.67
2019-05-21T21:38:32.114Z,11.09
2019-05-21T21:49:06.494Z,10.95
2019-05-21T21:59:39.998Z,10.69
2019-05-21T22:10:14.576Z,10.90
2019-05-21T22:20:48.551Z,10.69
2019-05-21T22:31:21.282Z,10.46
2019-05-21T22:41:54.856Z,10.35
2019-05-21T22:52:28.802Z,10.21
2019-05-21T23:03:03.505Z,10.31
2019-05-21T23:13:37.032Z,10.17
2019-05-21T23:24:11.567Z,10.23
2019-05-21T23:34:45.427Z,10.04
2019-05-21T23:45:21.016Z,10.03
2019-05-21T23:55:55.479Z,10.35
